createdAt,value
2023-01-21T00:03:24.974Z,1.39
2023-01-21T00:08:28.148Z,1.43
2023-01-21T00:13:31.122Z,1.45
2023-01-21T00:18:34.434Z,1.40
2023-01-21T00:23:37.399Z,1.38
2023-01-21T00:28:42.019Z,1.43
2023-01-21T00:33:44.979Z,1.47
2023-01-21T00:38:51.075Z,1.50
2023-01-21T00:43:54.004Z,1.47
2023-01-21T00:48:56.927Z,1.48
2023-01-21T00:53:59.875Z,1.48
2023-01-21T00:59:02.796Z,1.45
2023-01-21T01:04:06.304Z,1.41
2023-01-21T01:09:09.581Z,1.35
2023-01-21T01:14:12.539Z,1.34
2023-01-21T01:19:16.561Z,1.33
2023-01-21T01:24:19.584Z,1.27
2023-01-21T01:29:22.566Z,1.29
2023-01-21T01:34:25.543Z,1.32
2023-01-21T01:39:28.531Z,1.34
2023-01-21T01:45:05.113Z,1.32
2023-01-21T01:50:12.974Z,1.31
2023-01-21T01:55:16.143Z,1.34
2023-01-21T02:00:20.352Z,1.36
2023-01-21T02:05:23.406Z,1.31
2023-01-21T02:10:26.578Z,1.23
2023-01-21T02:15:39.309Z,1.23
2023-01-21T02:20:59.867Z,1.21
2023-01-21T02:26:24.182Z,1.21
2023-01-21T02:31:59.378Z,1.18
2023-01-21T02:37:16.686Z,1.12
2023-01-21T02:42:42.053Z,1.09
2023-01-21T02:48:08.653Z,1.07
2023-01-21T02:53:32.717Z,1.11
2023-01-21T02:58:41.600Z,1.18
2023-01-21T03:03:53.372Z,1.18
2023-01-21T03:09:08.547Z,1.20
2023-01-21T03:14:56.213Z,1.22
2023-01-21T03:20:18.867Z,1.24
2023-01-21T03:25:22.848Z,1.22
2023-01-21T03:30:25.888Z,1.19
2023-01-21T03:35:36.354Z,1.21
2023-01-21T03:40:48.818Z,1.24
2023-01-21T03:46:28.578Z,1.23
2023-01-21T03:51:41.627Z,1.23
2023-01-21T03:56:44.597Z,1.25
2023-01-21T04:01:47.537Z,1.27
2023-01-21T04:06:50.511Z,1.26
2023-01-21T04:11:53.617Z,1.27
2023-01-21T04:16:56.552Z,1.34
2023-01-21T04:21:59.615Z,1.33
2023-01-21T04:27:02.776Z,1.30
2023-01-21T04:32:05.802Z,1.33
2023-01-21T04:37:08.828Z,1.42
2023-01-21T04:42:11.744Z,1.47
2023-01-21T04:47:14.665Z,1.41
2023-01-21T04:52:17.563Z,1.36
2023-01-21T04:57:20.509Z,1.35
2023-01-21T05:02:23.562Z,1.31
2023-01-21T05:07:26.824Z,1.24
2023-01-21T05:12:29.772Z,1.27
2023-01-21T05:17:32.738Z,1.32
2023-01-21T05:22:35.680Z,1.32
2023-01-21T05:27:38.656Z,1.32
2023-01-21T05:32:41.621Z,1.37
2023-01-21T05:37:44.667Z,1.41
2023-01-21T05:42:47.973Z,1.43
2023-01-21T05:47:50.932Z,1.38
2023-01-21T05:52:53.912Z,1.31
2023-01-21T05:57:57.234Z,1.37
2023-01-21T06:03:01.994Z,1.49
2023-01-21T06:08:05.092Z,1.52
2023-01-21T06:13:12.230Z,1.54
2023-01-21T06:18:15.221Z,1.52
2023-01-21T06:23:18.511Z,1.53
2023-01-21T06:28:21.437Z,1.60
2023-01-21T06:33:24.435Z,1.62
2023-01-21T06:38:27.351Z,1.63
2023-01-21T06:43:30.377Z,1.59
2023-01-21T06:48:34.048Z,1.60
2023-01-21T06:53:37.000Z,1.64
2023-01-21T06:58:40.372Z,1.69
2023-01-21T07:03:44.374Z,1.70
2023-01-21T07:08:47.166Z,1.71
2023-01-21T07:13:50.136Z,1.70
2023-01-21T07:18:53.199Z,1.70
2023-01-21T07:23:56.672Z,1.75
2023-01-21T07:29:01.802Z,1.85
2023-01-21T07:34:05.554Z,1.95
2023-01-21T07:39:08.509Z,2.01
2023-01-21T07:44:11.606Z,2.00
2023-01-21T07:49:17.423Z,1.99
2023-01-21T07:54:20.444Z,2.05
2023-01-21T07:59:24.020Z,2.17
2023-01-21T08:04:26.960Z,2.20
2023-01-21T08:09:29.897Z,2.23
2023-01-21T08:14:33.791Z,2.27
2023-01-21T08:19:36.595Z,2.27
2023-01-21T08:24:39.533Z,2.26
2023-01-21T08:29:42.473Z,2.31
2023-01-21T08:34:45.416Z,2.40
2023-01-21T08:39:48.325Z,2.50
2023-01-21T08:44:51.419Z,2.58
2023-01-21T08:49:54.368Z,2.65
2023-01-21T08:54:57.450Z,2.71
2023-01-21T09:00:00.426Z,2.80
2023-01-21T09:05:03.568Z,2.87
2023-01-21T09:10:07.587Z,2.96
2023-01-21T09:15:10.959Z,3.07
2023-01-21T09:20:13.993Z,3.19
2023-01-21T09:25:17.094Z,3.34
2023-01-21T09:30:20.184Z,3.46
2023-01-21T09:35:23.149Z,3.54
2023-01-21T09:40:26.094Z,3.53
2023-01-21T09:45:29.284Z,3.55
2023-01-21T09:50:35.127Z,3.64
2023-01-21T09:55:49.969Z,3.72
2023-01-21T10:01:12.836Z,3.80
2023-01-21T10:06:35.290Z,3.85
2023-01-21T10:12:08.441Z,3.91
2023-01-21T10:18:00.861Z,3.95
2023-01-21T10:23:17.337Z,3.98
2023-01-21T10:28:28.458Z,3.90
2023-01-21T10:33:33.597Z,3.75
2023-01-21T10:39:01.347Z,3.71
2023-01-21T10:44:13.540Z,3.81
2023-01-21T10:49:48.762Z,3.86
2023-01-21T10:55:05.385Z,3.90
2023-01-21T11:00:24.904Z,3.93
2023-01-21T11:05:30.867Z,3.93
2023-01-21T11:10:33.916Z,3.90
2023-01-21T11:15:37.201Z,4.00
2023-01-21T11:20:43.319Z,4.10
2023-01-21T11:25:49.157Z,4.18
2023-01-21T11:31:31.487Z,4.23
2023-01-21T11:36:34.784Z,4.23
2023-01-21T11:41:37.917Z,4.17
2023-01-21T11:46:41.630Z,4.10
2023-01-21T11:51:46.900Z,4.10
2023-01-21T11:57:02.891Z,4.09
2023-01-21T12:02:24.104Z,4.11
2023-01-21T12:07:34.262Z,4.11
2023-01-21T12:12:59.789Z,4.03
2023-01-21T12:18:56.260Z,3.94
2023-01-21T12:24:20.384Z,3.94
2023-01-21T12:29:41.331Z,4.04
2023-01-21T12:34:53.808Z,4.18
2023-01-21T12:40:01.404Z,4.23
2023-01-21T12:45:17.791Z,4.25
2023-01-21T12:50:36.188Z,4.27
2023-01-21T12:56:01.598Z,4.32
2023-01-21T13:01:16.148Z,4.36
2023-01-21T13:06:37.925Z,4.35
2023-01-21T13:11:59.988Z,4.37
2023-01-21T13:17:13.362Z,4.29
2023-01-21T13:22:35.304Z,4.17
2023-01-21T13:27:51.885Z,4.15
2023-01-21T13:33:18.561Z,4.17
2023-01-21T13:38:32.161Z,4.20
2023-01-21T13:43:56.401Z,4.17
2023-01-21T13:49:46.320Z,4.11
2023-01-21T13:54:56.039Z,4.02
2023-01-21T14:00:19.789Z,3.92
2023-01-21T14:05:43.660Z,3.85
2023-01-21T14:10:56.541Z,3.80
2023-01-21T14:16:50.452Z,3.77
2023-01-21T14:22:24.325Z,3.78
2023-01-21T14:27:51.694Z,3.72
2023-01-21T14:33:02.756Z,3.57
2023-01-21T14:38:43.691Z,3.53
2023-01-21T14:43:50.384Z,3.51
2023-01-21T14:49:08.661Z,3.40
2023-01-21T14:54:26.508Z,3.34
2023-01-21T14:59:42.117Z,3.44
2023-01-21T15:04:58.814Z,3.56
2023-01-21T15:10:20.104Z,3.66
2023-01-21T15:15:36.843Z,3.72
2023-01-21T15:20:42.807Z,3.76
2023-01-21T15:26:11.386Z,3.75
2023-01-21T15:31:20.959Z,3.66
2023-01-21T15:36:31.211Z,3.58
2023-01-21T15:42:10.243Z,3.55
2023-01-21T15:47:38.593Z,3.57
2023-01-21T15:53:22.661Z,3.56
2023-01-21T15:58:37.555Z,3.54
2023-01-21T16:03:57.726Z,3.57
2023-01-21T16:09:07.739Z,3.56
2023-01-21T16:14:39.181Z,3.55
2023-01-21T16:19:47.039Z,3.51
2023-01-21T16:24:55.693Z,3.47
2023-01-21T16:30:01.603Z,3.45
2023-01-21T16:35:05.587Z,3.48
2023-01-21T16:40:23.392Z,3.56
2023-01-21T16:45:26.395Z,3.61
2023-01-21T16:50:32.178Z,3.61
2023-01-21T16:55:44.206Z,3.51
2023-01-21T17:01:08.148Z,3.38
2023-01-21T17:06:24.839Z,3.27
2023-01-21T17:11:28.733Z,3.18
2023-01-21T17:16:34.540Z,3.22
2023-01-21T17:21:49.946Z,3.29
2023-01-21T17:27:01.068Z,3.37
2023-01-21T17:32:07.359Z,3.43
2023-01-21T17:37:58.327Z,3.48
2023-01-21T17:43:26.012Z,3.50
2023-01-21T17:48:36.688Z,3.43
2023-01-21T17:53:46.303Z,3.23
2023-01-21T17:58:51.592Z,3.11
2023-01-21T18:03:54.519Z,3.07
2023-01-21T18:08:57.985Z,3.10
2023-01-21T18:14:00.930Z,3.13
2023-01-21T18:19:03.850Z,3.27
2023-01-21T18:24:11.410Z,3.37
2023-01-21T18:29:15.287Z,3.35
2023-01-21T18:34:18.921Z,3.25
2023-01-21T18:39:21.936Z,3.19
2023-01-21T18:44:24.912Z,3.15
2023-01-21T18:49:29.474Z,3.17
2023-01-21T18:54:33.286Z,3.20
2023-01-21T18:59:37.411Z,3.28
2023-01-21T19:04:40.551Z,3.31
2023-01-21T19:09:46.202Z,3.34
2023-01-21T19:14:49.408Z,3.28
2023-01-21T19:19:53.841Z,3.29
2023-01-21T19:24:56.778Z,3.24
2023-01-21T19:29:59.826Z,3.20
2023-01-21T19:35:02.761Z,3.20
2023-01-21T19:40:27.897Z,3.24
2023-01-21T19:45:30.964Z,3.31
2023-01-21T19:50:33.911Z,3.43
2023-01-21T19:55:39.096Z,3.50
2023-01-21T20:00:42.171Z,3.50
2023-01-21T20:05:46.044Z,3.50
2023-01-21T20:10:49.102Z,3.48
2023-01-21T20:15:52.662Z,3.42
2023-01-21T20:20:56.022Z,3.34
2023-01-21T20:25:59.758Z,3.36
2023-01-21T20:31:06.515Z,3.41
2023-01-21T20:36:21.276Z,3.48
2023-01-21T20:41:24.232Z,3.43
2023-01-21T20:46:29.830Z,3.44
2023-01-21T20:51:32.920Z,3.41
2023-01-21T20:56:36.153Z,3.31
2023-01-21T21:01:39.761Z,3.23
2023-01-21T21:06:45.772Z,3.21
2023-01-21T21:11:48.763Z,3.18
2023-01-21T21:16:51.851Z,3.22
2023-01-21T21:21:54.831Z,3.23
2023-01-21T21:26:58.002Z,3.24
2023-01-21T21:32:02.339Z,3.28
2023-01-21T21:37:05.320Z,3.25
2023-01-21T21:42:30.613Z,3.22
2023-01-21T21:47:52.103Z,3.17
2023-01-21T21:52:55.123Z,3.09
2023-01-21T21:57:58.507Z,3.13
2023-01-21T22:03:02.316Z,3.22
2023-01-21T22:08:08.543Z,3.27
2023-01-21T22:13:11.902Z,3.25
2023-01-21T22:18:14.854Z,3.22
2023-01-21T22:23:17.921Z,3.19
2023-01-21T22:28:21.656Z,3.16
2023-01-21T22:33:24.610Z,3.17
2023-01-21T22:38:27.556Z,3.20
2023-01-21T22:43:31.764Z,3.19
2023-01-21T22:48:34.733Z,3.14
2023-01-21T22:53:38.974Z,3.04
2023-01-21T22:58:42.483Z,2.97
2023-01-21T23:03:45.430Z,2.94
2023-01-21T23:08:49.105Z,3.00
2023-01-21T23:13:55.388Z,3.12
2023-01-21T23:18:58.686Z,3.15
2023-01-21T23:24:01.621Z,3.18
2023-01-21T23:29:04.658Z,3.18
2023-01-21T23:34:07.621Z,3.13
2023-01-21T23:39:11.112Z,3.07
2023-01-21T23:44:14.066Z,3.09
2023-01-21T23:49:18.664Z,3.16
2023-01-21T23:54:21.663Z,3.25
2023-01-21T23:59:24.790Z,3.28
